Time;durP1;ratioP1;P1;durP2;ratioP2;P2;SDS_P1;SDS_P2;PMS_P1;PMS_P2;Temp;Humidity;BMP_temperature;BMP_pressure;BME280_temperature;BME280_humidity;BME280_pressure;Samples;Min_cycle;Max_cycle;Signal;HPM_P1;HPM_P2
2020/12/23 00:00:18;;;;;;;7.13;4.60;;;9.30;1.00;;;;;;5013178;28;20442;-96
2020/12/23 00:02:44;;;;;;;5.78;4.65;;;9.20;1.00;;;;;;5013031;28;20072;-95
2020/12/23 00:05:14;;;;;;;6.18;4.80;;;9.20;1.00;;;;;;5012963;28;20022;-95
2020/12/23 00:07:40;;;;;;;6.18;4.65;;;9.20;1.00;;;;;;5013061;28;20104;-95
2020/12/23 00:10:06;;;;;;;6.30;4.70;;;9.10;1.00;;;;;;5012971;28;20049;-95
2020/12/23 00:16:43;;;;;;;5.68;3.65;;;9.20;1.00;;;;;;5014330;28;20072;-95
2020/12/23 00:19:09;;;;;;;6.10;4.15;;;9.10;1.00;;;;;;5029396;28;20541;-95
2020/12/23 00:21:57;;;;;;;5.75;4.40;;;9.30;1.00;;;;;;5012964;28;20023;-95
2020/12/23 00:24:23;;;;;;;5.00;3.72;;;9.30;1.00;;;;;;5012873;28;20022;-96
2020/12/23 00:26:48;;;;;;;9.10;3.65;;;9.50;1.00;;;;;;5012688;28;20033;-95
2020/12/23 00:29:14;;;;;;;4.10;3.70;;;9.50;1.00;;;;;;5012934;28;20025;-95
2020/12/23 00:31:40;;;;;;;5.00;3.45;;;9.60;1.00;;;;;;5012838;28;20065;-95
2020/12/23 00:34:06;;;;;;;5.53;3.30;;;9.80;1.00;;;;;;5019905;28;20053;-96
2020/12/23 00:36:32;;;;;;;3.75;3.30;;;9.80;1.00;;;;;;5032414;28;20022;-96
2020/12/23 00:38:58;;;;;;;4.25;3.45;;;9.90;1.00;;;;;;5032380;28;20029;-96
2020/12/23 00:41:23;;;;;;;4.45;3.60;;;10.00;1.00;;;;;;5032338;28;20053;-95
2020/12/23 00:43:49;;;;;;;6.07;3.70;;;10.00;1.00;;;;;;5032582;28;20029;-96
2020/12/23 00:46:15;;;;;;;4.75;3.90;;;10.00;1.00;;;;;;5032115;28;20056;-95
2020/12/23 00:48:41;;;;;;;4.93;3.80;;;10.00;1.00;;;;;;5032549;28;20076;-95
2020/12/23 00:51:14;;;;;;;5.38;3.45;;;10.00;1.00;;;;;;5032355;28;20021;-96
2020/12/23 00:53:41;;;;;;;4.63;3.50;;;10.00;1.00;;;;;;5032151;28;20026;-96
2020/12/23 00:56:07;;;;;;;4.80;3.60;;;10.00;1.00;;;;;;5032682;28;20060;-95
2020/12/23 00:58:33;;;;;;;5.15;3.78;;;10.00;1.00;;;;;;5035927;28;20029;-95
2020/12/23 01:00:59;;;;;;;4.43;4.00;;;10.00;1.00;;;;;;5035879;28;20037;-95
2020/12/23 01:03:25;;;;;;;5.60;3.88;;;10.10;1.00;;;;;;5035825;28;20552;-95
2020/12/23 01:05:51;;;;;;;5.07;4.30;;;10.00;1.00;;;;;;5035676;28;20112;-95
2020/12/23 01:08:17;;;;;;;5.68;4.30;;;10.00;1.00;;;;;;5035620;28;20505;-96
2020/12/23 01:10:47;;;;;;;5.50;4.28;;;9.90;1.00;;;;;;5035553;28;20028;-95
2020/12/23 01:13:14;;;;;;;5.55;4.32;;;9.90;1.00;;;;;;5035759;28;20030;-95
2020/12/23 01:15:40;;;;;;;5.07;4.10;;;9.80;1.00;;;;;;5035691;28;20069;-95
2020/12/23 01:18:06;;;;;;;4.85;4.15;;;9.90;1.00;;;;;;5035606;28;20026;-96
2020/12/23 01:20:31;;;;;;;5.55;4.30;;;9.80;1.00;;;;;;5035611;28;20059;-95
2020/12/23 01:22:57;;;;;;;5.88;4.43;;;9.90;1.00;;;;;;5035396;28;20479;-95
2020/12/23 01:25:23;;;;;;;5.22;4.30;;;9.90;1.00;;;;;;5035472;28;20025;-95
2020/12/23 01:27:48;;;;;;;6.40;4.70;;;9.90;1.00;;;;;;5035678;28;20026;-95
2020/12/23 01:30:16;;;;;;;5.72;3.80;;;9.90;1.00;;;;;;5035193;28;20035;-95
2020/12/23 01:36:10;;;;;;;6.03;4.10;;;9.90;1.00;;;;;;5045993;28;20106;-96
2020/12/23 01:38:36;;;;;;;4.80;3.97;;;9.80;1.00;;;;;;5038326;28;20463;-95
2020/12/23 01:41:04;;;;;;;5.05;4.40;;;9.80;1.00;;;;;;5038890;28;20028;-96
2020/12/23 01:43:29;;;;;;;5.32;4.00;;;9.80;1.00;;;;;;5038367;28;20029;-95
2020/12/23 01:45:56;;;;;;;5.18;3.90;;;9.90;1.00;;;;;;5038458;28;20021;-95
2020/12/23 01:48:24;;;;;;;5.88;4.00;;;9.80;1.00;;;;;;5038715;28;20054;-96
2020/12/23 01:50:50;;;;;;;5.15;4.22;;;9.80;1.00;;;;;;5038026;28;20021;-95
2020/12/23 01:53:16;;;;;;;6.00;4.05;;;9.80;1.00;;;;;;5038335;28;20025;-95
2020/12/23 01:55:46;;;;;;;4.75;3.60;;;9.80;1.00;;;;;;5038209;28;20025;-96
2020/12/23 01:58:12;;;;;;;4.15;3.30;;;9.90;1.00;;;;;;5038234;28;20029;-96
2020/12/23 02:00:39;;;;;;;3.30;2.40;;;9.90;1.00;;;;;;5038299;28;20033;-95
2020/12/23 02:03:08;;;;;;;3.35;2.65;;;10.10;1.00;;;;;;5037941;28;20032;-95
2020/12/23 02:05:34;;;;;;;2.20;2.00;;;10.10;1.00;;;;;;5038047;28;20392;-95
2020/12/23 02:07:59;;;;;;;3.88;2.15;;;10.20;1.00;;;;;;5036995;28;20021;-96
2020/12/23 02:10:25;;;;;;;3.05;2.30;;;10.40;1.00;;;;;;5037837;28;20025;-96
2020/12/23 02:12:53;;;;;;;2.75;2.47;;;10.40;1.00;;;;;;5037958;28;20171;-95
2020/12/23 02:15:19;;;;;;;4.07;2.70;;;10.20;1.00;;;;;;5037720;28;20029;-95
2020/12/23 02:17:46;;;;;;;4.28;2.92;;;10.10;1.00;;;;;;5037756;28;20029;-96
2020/12/23 02:20:14;;;;;;;4.47;2.92;;;9.90;1.00;;;;;;5037961;28;20024;-95
2020/12/23 02:29:24;;;;;;;3.00;2.10;;;9.90;1.00;;;;;;5055292;28;20023;-96
2020/12/23 02:31:49;;;;;;;4.65;2.15;;;10.30;1.00;;;;;;5037520;28;20120;-96
2020/12/23 02:34:15;;;;;;;2.60;1.90;;;10.30;1.00;;;;;;5037436;28;20025;-96
2020/12/23 02:36:43;;;;;;;4.25;2.47;;;10.30;1.00;;;;;;5036964;28;20091;-95
2020/12/23 02:39:08;;;;;;;2.42;2.10;;;10.40;1.00;;;;;;5037506;28;20119;-95
2020/12/23 02:41:34;;;;;;;5.03;2.42;;;10.30;1.00;;;;;;5037442;28;20069;-95
2020/12/23 02:43:59;;;;;;;3.25;2.28;;;10.40;1.00;;;;;;5037061;28;20064;-95
2020/12/23 02:46:25;;;;;;;4.13;2.50;;;10.40;1.00;;;;;;5037434;28;20070;-95
2020/12/23 02:48:51;;;;;;;6.50;2.60;;;10.30;1.00;;;;;;5037304;28;20397;-96
2020/12/23 02:51:16;;;;;;;2.42;2.20;;;10.30;1.00;;;;;;5037259;28;20021;-96
2020/12/23 02:53:42;;;;;;;2.53;2.05;;;10.40;1.00;;;;;;5037319;28;20040;-95
2020/12/23 02:56:07;;;;;;;2.40;2.20;;;10.40;1.00;;;;;;5037303;28;20401;-96
2020/12/23 02:58:33;;;;;;;3.78;2.15;;;10.40;1.00;;;;;;5037076;28;20025;-96
2020/12/23 03:00:58;;;;;;;2.97;1.90;;;10.40;1.00;;;;;;5037006;28;20124;-96
2020/12/23 03:03:24;;;;;;;3.35;2.20;;;10.40;1.00;;;;;;5036877;28;20028;-95
2020/12/23 03:05:50;;;;;;;2.30;2.05;;;10.40;1.00;;;;;;5037076;28;20079;-95
2020/12/23 03:08:15;;;;;;;1.92;1.77;;;10.40;1.00;;;;;;5037022;28;20021;-95
2020/12/23 03:10:41;;;;;;;2.45;2.10;;;10.50;1.00;;;;;;5036875;28;20119;-96
2020/12/23 03:13:06;;;;;;;2.78;2.28;;;10.70;1.00;;;;;;5036915;28;20396;-95
2020/12/23 03:15:32;;;;;;;2.00;1.77;;;10.60;1.00;;;;;;5036656;28;20075;-96
2020/12/23 03:17:58;;;;;;;2.15;1.83;;;10.60;1.00;;;;;;5036924;28;20033;-95
2020/12/23 03:20:23;;;;;;;2.78;2.03;;;10.50;1.00;;;;;;5036452;28;20032;-95
2020/12/23 03:22:49;;;;;;;3.47;1.90;;;10.60;1.00;;;;;;5036585;28;20032;-95
2020/12/23 03:25:14;;;;;;;3.05;2.13;;;10.60;1.00;;;;;;5036863;28;20032;-96
2020/12/23 03:27:40;;;;;;;4.50;2.20;;;10.70;1.00;;;;;;5036507;28;20028;-95
2020/12/23 03:30:06;;;;;;;3.05;2.42;;;10.70;1.00;;;;;;5036571;28;20066;-95
2020/12/23 03:32:32;;;;;;;2.75;2.40;;;10.70;1.00;;;;;;5036719;28;20078;-95
2020/12/23 03:34:57;;;;;;;2.35;2.10;;;10.80;1.00;;;;;;5036075;28;20024;-96
2020/12/23 03:37:23;;;;;;;3.75;2.38;;;10.70;1.00;;;;;;5036423;28;20043;-95
2020/12/23 03:39:48;;;;;;;2.45;2.25;;;10.70;1.00;;;;;;5036723;28;20029;-96
2020/12/23 03:42:14;;;;;;;4.00;2.95;;;10.70;1.00;;;;;;5036339;28;20472;-96
2020/12/23 03:44:40;;;;;;;2.78;2.58;;;10.60;1.00;;;;;;5036418;28;20017;-95
2020/12/23 03:47:05;;;;;;;3.35;2.72;;;10.60;1.00;;;;;;5036337;28;20021;-96
2020/12/23 03:49:31;;;;;;;3.00;2.58;;;10.70;1.00;;;;;;5036265;28;20531;-96
2020/12/23 03:51:56;;;;;;;3.30;2.75;;;10.60;1.00;;;;;;5036244;28;20017;-96
2020/12/23 03:54:22;;;;;;;4.35;3.10;;;10.70;1.00;;;;;;5036376;28;20116;-96
2020/12/23 03:56:48;;;;;;;3.08;2.88;;;10.60;1.00;;;;;;5036261;28;20523;-95
2020/12/23 03:59:13;;;;;;;4.97;3.50;;;10.60;1.00;;;;;;5036056;28;20021;-96
2020/12/23 04:01:39;;;;;;;4.38;3.50;;;10.60;1.00;;;;;;5036132;28;20040;-96
2020/12/23 04:04:05;;;;;;;3.70;3.10;;;10.70;1.00;;;;;;5036140;28;20040;-96
2020/12/23 04:06:30;;;;;;;3.83;3.42;;;10.60;1.00;;;;;;5036128;28;20013;-96
2020/12/23 04:08:56;;;;;;;4.28;3.70;;;10.70;1.00;;;;;;5036249;28;20498;-95
2020/12/23 04:11:22;;;;;;;4.45;3.67;;;10.60;1.00;;;;;;5036154;28;20048;-96
2020/12/23 04:13:47;;;;;;;3.97;3.58;;;10.60;1.00;;;;;;5036038;28;20032;-96
2020/12/23 04:16:13;;;;;;;4.20;3.78;;;10.60;1.00;;;;;;5035935;28;20079;-94
2020/12/23 04:18:39;;;;;;;5.68;4.13;;;10.50;1.00;;;;;;5036018;28;20055;-96
2020/12/23 04:21:04;;;;;;;4.85;4.32;;;10.50;1.00;;;;;;5036035;28;20025;-96
2020/12/23 04:23:30;;;;;;;5.38;4.70;;;10.50;1.00;;;;;;5036094;28;20467;-95
2020/12/23 04:25:56;;;;;;;5.55;4.82;;;10.50;1.00;;;;;;5035835;28;20461;-96
2020/12/23 04:28:21;;;;;;;8.10;5.90;;;10.50;1.00;;;;;;5035996;28;20021;-95
2020/12/23 04:30:47;;;;;;;6.88;5.72;;;10.60;1.00;;;;;;5035993;28;20025;-96
2020/12/23 04:33:14;;;;;;;6.45;5.63;;;10.60;1.00;;;;;;5039354;28;20029;-96
2020/12/23 04:35:40;;;;;;;6.97;6.15;;;10.50;1.00;;;;;;5039498;28;20049;-95
2020/12/23 04:38:06;;;;;;;7.38;6.10;;;10.50;1.00;;;;;;5039855;28;20163;-96
2020/12/23 04:40:32;;;;;;;7.03;5.82;;;10.50;1.00;;;;;;5039707;28;20029;-96
2020/12/23 04:42:57;;;;;;;6.97;6.28;;;10.40;1.00;;;;;;5039432;28;20254;-96
2020/12/23 04:45:23;;;;;;;7.05;5.45;;;10.50;1.00;;;;;;5039524;28;20408;-96
2020/12/23 04:47:52;;;;;;;7.93;6.53;;;10.50;1.00;;;;;;5039586;28;20017;-96
2020/12/23 04:50:21;;;;;;;6.70;5.85;;;10.50;1.00;;;;;;5039371;28;20021;-96
2020/12/23 04:52:47;;;;;;;6.70;6.00;;;10.60;1.00;;;;;;5039565;28;20033;-95
2020/12/23 04:55:12;;;;;;;10.15;6.22;;;10.50;1.00;;;;;;5039671;28;20032;-96
2020/12/23 04:57:39;;;;;;;9.40;6.20;;;10.50;1.00;;;;;;5039440;28;20043;-95
2020/12/23 05:00:06;;;;;;;6.82;6.07;;;10.60;1.00;;;;;;5039290;28;20029;-95
2020/12/23 05:02:32;;;;;;;6.95;6.15;;;10.60;1.00;;;;;;5039176;28;20060;-96
2020/12/23 05:04:58;;;;;;;6.22;5.63;;;10.70;1.00;;;;;;5039099;28;20025;-96
2020/12/23 05:07:24;;;;;;;6.60;5.90;;;10.60;1.00;;;;;;5039248;28;20031;-96
2020/12/23 05:09:50;;;;;;;5.65;5.10;;;10.60;1.00;;;;;;5039347;28;20103;-95
2020/12/23 05:15:38;;;;;;;6.30;5.45;;;10.60;1.00;;;;;;5056530;28;20404;-96
2020/12/23 05:18:03;;;;;;;5.95;5.35;;;10.70;1.00;;;;;;5038955;28;20029;-96
2020/12/23 05:20:29;;;;;;;5.93;5.32;;;10.70;1.00;;;;;;5038873;28;20031;-95
2020/12/23 05:22:57;;;;;;;6.88;5.10;;;10.70;1.00;;;;;;5038974;28;20033;-95
2020/12/23 05:25:22;;;;;;;5.13;4.72;;;10.70;1.00;;;;;;5039207;28;20048;-95
2020/12/23 05:27:49;;;;;;;6.50;5.43;;;10.70;1.00;;;;;;5038883;28;20033;-96
2020/12/23 05:30:17;;;;;;;6.20;5.07;;;10.70;1.00;;;;;;5038629;28;20017;-96
2020/12/23 05:32:46;;;;;;;5.80;5.20;;;10.70;1.00;;;;;;5038463;28;20053;-96
2020/12/23 05:35:14;;;;;;;6.15;5.43;;;10.70;1.00;;;;;;5038480;28;20037;-96
2020/12/23 05:37:41;;;;;;;7.43;5.30;;;10.80;1.00;;;;;;5038468;28;20029;-96
2020/12/23 05:40:07;;;;;;;6.32;5.68;;;10.70;1.00;;;;;;5038979;28;20028;-95
2020/12/23 05:42:33;;;;;;;5.68;5.07;;;10.70;1.00;;;;;;5038445;28;20451;-95
2020/12/23 05:44:58;;;;;;;5.97;5.07;;;10.70;1.00;;;;;;5038543;28;20500;-95
2020/12/23 05:47:26;;;;;;;6.03;4.85;;;10.70;1.00;;;;;;5038510;28;20039;-95
2020/12/23 05:49:53;;;;;;;5.40;4.90;;;10.70;1.00;;;;;;5038161;28;20032;-95
2020/12/23 05:52:22;;;;;;;5.82;5.15;;;10.70;1.00;;;;;;5038386;28;20033;-95
2020/12/23 05:54:52;;;;;;;6.43;5.78;;;10.70;1.00;;;;;;5038286;28;20028;-94
2020/12/23 05:57:18;;;;;;;5.70;5.10;;;10.80;1.00;;;;;;5038144;28;20056;-95
2020/12/23 05:59:45;;;;;;;7.28;5.85;;;10.80;1.00;;;;;;5038143;28;20119;-95
2020/12/23 06:02:12;;;;;;;7.57;5.50;;;10.80;1.00;;;;;;5037886;28;20028;-95
2020/12/23 06:04:42;;;;;;;6.20;5.60;;;10.80;1.00;;;;;;5037773;28;20116;-94
2020/12/23 06:07:08;;;;;;;6.40;5.75;;;10.70;1.00;;;;;;5038012;28;20025;-95
2020/12/23 06:09:47;;;;;;;6.13;5.53;;;10.70;1.00;;;;;;5037943;28;20032;-95
2020/12/23 06:15:40;;;;;;;10.20;6.68;;;10.70;1.00;;;;;;5056017;28;20036;-95
2020/12/23 06:18:10;;;;;;;7.03;6.32;;;10.70;1.00;;;;;;5037949;28;20082;-95
2020/12/23 06:20:38;;;;;;;7.45;6.72;;;10.70;1.00;;;;;;5037713;28;20021;-95
2020/12/23 06:23:04;;;;;;;7.82;6.80;;;10.70;1.00;;;;;;5037412;28;20123;-94
2020/12/23 06:25:32;;;;;;;7.82;7.03;;;10.70;1.00;;;;;;5037777;28;20028;-95
2020/12/23 06:28:00;;;;;;;8.50;7.50;;;10.60;1.00;;;;;;5038037;28;20037;-94
2020/12/23 06:30:29;;;;;;;7.50;6.80;;;10.70;1.00;;;;;;5037454;28;20013;-94
2020/12/23 06:33:01;;;;;;;8.77;7.72;;;10.70;1.00;;;;;;5037856;28;20028;-95
2020/12/23 06:35:27;;;;;;;8.70;7.45;;;10.70;1.00;;;;;;5021452;28;20140;-96
2020/12/23 06:41:21;;;;;;;9.48;7.93;;;10.60;1.00;;;;;;5035875;28;20033;-94
2020/12/23 06:43:59;;;;;;;7.75;6.93;;;10.50;1.00;;;;;;5017780;28;20037;-94
2020/12/23 06:46:25;;;;;;;8.32;7.45;;;10.50;1.00;;;;;;5017453;28;20068;-94
2020/12/23 06:48:50;;;;;;;7.72;6.95;;;10.50;1.00;;;;;;5017720;28;20026;-93
2020/12/23 06:51:38;;;;;;;8.68;7.43;;;10.50;1.00;;;;;;5018059;28;20026;-95
2020/12/23 06:54:04;;;;;;;8.82;7.80;;;10.50;1.00;;;;;;5016785;28;20090;-95
2020/12/23 06:56:48;;;;;;;8.60;7.53;;;10.50;1.00;;;;;;5019274;28;20100;-93
2020/12/23 06:59:45;;;;;;;8.43;7.47;;;10.40;1.00;;;;;;5017439;28;20041;-95
2020/12/23 07:02:42;;;;;;;8.32;7.43;;;10.40;1.00;;;;;;5016973;28;20069;-95
2020/12/23 07:05:09;;;;;;;8.07;7.28;;;10.50;1.00;;;;;;5019470;28;20056;-93
2020/12/23 07:11:02;;;;;;;7.82;6.80;;;10.50;1.00;;;;;;5055048;28;20040;-93
2020/12/23 07:13:35;;;;;;;8.98;6.85;;;10.50;1.00;;;;;;5036547;28;20060;-93
2020/12/23 07:16:03;;;;;;;9.25;7.28;;;10.50;1.00;;;;;;5036618;28;20021;-94
2020/12/23 07:18:30;;;;;;;9.95;7.97;;;10.60;1.00;;;;;;5036834;28;20033;-95
2020/12/23 07:21:00;;;;;;;8.20;7.40;;;10.60;1.00;;;;;;5034931;28;20032;-91
2020/12/23 07:23:31;;;;;;;8.60;7.70;;;10.60;1.00;;;;;;5027828;28;20030;-94
2020/12/23 07:26:04;;;;;;;9.77;7.85;;;10.70;1.00;;;;;;5017501;28;20116;-95
2020/12/23 07:28:33;;;;;;;8.57;7.55;;;10.70;1.00;;;;;;5027600;28;20036;-94
2020/12/23 07:30:59;;;;;;;9.43;8.35;;;10.80;1.00;;;;;;5017436;28;20026;-91
2020/12/23 07:33:26;;;;;;;9.77;8.45;;;10.80;1.00;;;;;;5024336;28;20055;-94
2020/12/23 07:35:57;;;;;;;9.07;8.10;;;10.90;1.00;;;;;;5026334;28;20050;-91
2020/12/23 07:38:24;;;;;;;9.57;7.85;;;10.90;1.00;;;;;;5048475;28;20037;-93
2020/12/23 07:40:50;;;;;;;9.02;7.68;;;10.90;1.00;;;;;;5033774;28;20057;-91
2020/12/23 07:43:17;;;;;;;9.25;7.55;;;11.00;1.00;;;;;;5020503;28;20441;-93
2020/12/23 07:45:44;;;;;;;11.13;8.20;;;11.10;1.00;;;;;;5013024;28;20021;-93
2020/12/23 07:48:21;;;;;;;9.32;7.97;;;11.10;1.00;;;;;;5012924;28;20030;-93
2020/12/23 07:50:51;;;;;;;8.63;7.60;;;11.20;1.00;;;;;;5013122;28;20034;-93
2020/12/23 07:53:19;;;;;;;11.10;8.32;;;11.30;1.00;;;;;;5012231;28;20130;-93
2020/12/23 07:55:46;;;;;;;9.15;7.15;;;11.40;1.00;;;;;;5012041;28;20026;-94
2020/12/23 07:58:12;;;;;;;10.38;8.05;;;11.40;1.00;;;;;;5011931;28;20033;-94
2020/12/23 08:00:40;;;;;;;7.30;6.38;;;11.50;1.00;;;;;;5011530;28;20025;-94
2020/12/23 08:03:07;;;;;;;8.40;7.50;;;11.60;1.00;;;;;;5011800;28;20025;-93
2020/12/23 08:05:38;;;;;;;8.90;7.05;;;11.70;1.00;;;;;;5018834;28;20044;-93
2020/12/23 08:08:06;;;;;;;7.88;6.68;;;11.90;1.00;;;;;;5035989;28;20021;-93
2020/12/23 08:10:32;;;;;;;7.68;6.13;;;12.10;1.00;;;;;;5036592;28;20025;-93
2020/12/23 08:13:02;;;;;;;10.13;7.03;;;12.60;1.00;;;;;;5036271;28;20061;-93
2020/12/23 08:15:29;;;;;;;6.90;6.20;;;12.90;1.00;;;;;;5036488;28;20468;-93
2020/12/23 08:18:13;;;;;;;7.93;6.43;;;12.80;1.00;;;;;;5036167;28;20035;-93
2020/12/23 08:20:38;;;;;;;7.40;6.07;;;12.70;1.00;;;;;;5035720;28;20120;-93
2020/12/23 08:23:04;;;;;;;7.35;6.32;;;12.70;1.00;;;;;;5035851;28;20213;-93
2020/12/23 08:25:32;;;;;;;8.35;6.57;;;12.70;1.00;;;;;;5069275;28;20112;-93
2020/12/23 08:27:59;;;;;;;7.07;6.03;;;12.70;1.00;;;;;;5036137;28;20040;-93
2020/12/23 08:30:30;;;;;;;7.95;6.00;;;12.70;1.00;;;;;;5036030;28;20171;-93
2020/12/23 08:33:02;;;;;;;6.63;5.85;;;13.00;1.00;;;;;;5036004;28;20025;-93
2020/12/23 08:35:38;;;;;;;7.32;5.97;;;13.40;1.00;;;;;;5037143;28;20069;-93
2020/12/23 08:38:04;;;;;;;8.85;6.18;;;13.40;1.00;;;;;;5035602;28;20037;-93
2020/12/23 08:40:31;;;;;;;6.78;5.72;;;13.20;1.00;;;;;;5035819;28;20029;-93
2020/12/23 08:42:58;;;;;;;7.65;5.78;;;13.00;1.00;;;;;;5035732;28;20028;-93
2020/12/23 08:45:26;;;;;;;6.75;5.97;;;12.80;1.00;;;;;;5035705;28;20017;-93
2020/12/23 08:47:53;;;;;;;5.85;5.22;;;12.70;1.00;;;;;;5035552;28;20474;-93
2020/12/23 08:50:20;;;;;;;6.15;5.35;;;12.60;1.00;;;;;;5027494;28;20389;-93
2020/12/23 08:52:47;;;;;;;7.88;5.95;;;12.60;1.00;;;;;;5015926;28;20100;-93
2020/12/23 08:55:23;;;;;;;6.78;5.43;;;12.60;1.00;;;;;;5016144;28;20026;-94
2020/12/23 08:58:05;;;;;;;6.68;5.63;;;12.60;1.00;;;;;;5015815;28;20563;-93
2020/12/23 09:00:32;;;;;;;5.57;4.53;;;12.60;1.00;;;;;;5011482;28;20029;-93
2020/12/23 09:02:58;;;;;;;6.25;5.22;;;12.60;1.00;;;;;;5015468;28;20494;-94
2020/12/23 09:05:37;;;;;;;5.70;4.82;;;12.60;1.00;;;;;;5026762;28;20500;-94
2020/12/23 09:08:07;;;;;;;6.75;5.38;;;12.60;1.00;;;;;;5035415;28;20112;-94
2020/12/23 09:10:37;;;;;;;6.07;4.82;;;12.70;1.00;;;;;;5035298;28;20018;-94
2020/12/23 09:13:08;;;;;;;6.30;5.00;;;12.70;1.00;;;;;;5035099;28;20029;-94
2020/12/23 09:15:35;;;;;;;4.50;4.10;;;12.70;1.00;;;;;;5035380;28;20021;-94
2020/12/23 09:18:08;;;;;;;6.32;4.57;;;12.80;1.00;;;;;;5034700;28;20029;-94
2020/12/23 09:20:35;;;;;;;5.85;4.30;;;12.80;1.00;;;;;;5035093;28;20108;-94
2020/12/23 09:23:02;;;;;;;5.25;4.45;;;12.80;1.00;;;;;;5035019;28;20026;-94
2020/12/23 09:25:30;;;;;;;5.38;4.55;;;12.90;1.00;;;;;;5035238;28;20029;-94
2020/12/23 09:28:07;;;;;;;5.20;4.35;;;12.90;1.00;;;;;;5035096;28;20033;-94
2020/12/23 09:30:39;;;;;;;4.85;4.07;;;13.10;1.00;;;;;;5034871;28;20399;-94
2020/12/23 09:33:07;;;;;;;5.10;3.95;;;13.20;1.00;;;;;;5034977;28;20596;-93
2020/12/23 09:35:33;;;;;;;5.22;4.20;;;13.20;1.00;;;;;;5051437;28;20053;-94
2020/12/23 09:38:34;;;;;;;4.43;3.88;;;13.20;1.00;;;;;;5051600;28;20022;-94
2020/12/23 09:41:01;;;;;;;4.30;3.75;;;13.40;1.00;;;;;;5035002;28;20477;-94
2020/12/23 09:43:28;;;;;;;4.88;3.92;;;13.40;1.00;;;;;;5034525;28;20131;-94
2020/12/23 09:45:56;;;;;;;4.90;4.40;;;13.40;1.00;;;;;;5034847;28;20025;-94
2020/12/23 09:48:23;;;;;;;4.88;4.10;;;13.50;1.00;;;;;;5034518;28;20053;-93
2020/12/23 09:50:49;;;;;;;4.00;3.60;;;13.60;1.00;;;;;;5034255;28;20029;-94
2020/12/23 09:53:15;;;;;;;4.25;3.22;;;13.60;1.00;;;;;;5034745;28;20087;-94
2020/12/23 09:55:45;;;;;;;7.45;3.67;;;13.60;1.00;;;;;;5034939;28;20021;-94
2020/12/23 09:58:11;;;;;;;3.45;3.15;;;13.50;1.00;;;;;;5034298;28;20504;-93
2020/12/23 10:00:38;;;;;;;5.63;3.25;;;13.50;1.00;;;;;;5034373;28;20026;-94
2020/12/23 10:03:04;;;;;;;3.55;3.25;;;13.70;1.00;;;;;;5034002;28;20033;-93
2020/12/23 10:05:31;;;;;;;4.45;3.72;;;13.80;1.00;;;;;;5034337;28;20018;-94
2020/12/23 10:07:57;;;;;;;4.97;3.97;;;13.90;1.00;;;;;;5034371;28;20474;-94
2020/12/23 10:10:23;;;;;;;6.00;4.18;;;13.70;1.00;;;;;;5034194;28;20017;-95
2020/12/23 10:12:49;;;;;;;4.55;4.07;;;13.70;1.00;;;;;;5034322;28;20549;-94
2020/12/23 10:15:15;;;;;;;5.57;4.20;;;13.70;1.00;;;;;;5034254;28;20032;-94
2020/12/23 10:17:41;;;;;;;6.38;5.03;;;13.70;1.00;;;;;;5034291;28;20033;-94
2020/12/23 10:20:07;;;;;;;5.45;4.43;;;13.50;1.00;;;;;;5028852;28;20048;-94
2020/12/23 10:22:33;;;;;;;5.38;4.53;;;13.50;1.00;;;;;;5014447;28;20490;-94
2020/12/23 10:24:59;;;;;;;9.43;4.90;;;13.60;1.00;;;;;;5014441;28;20026;-94
2020/12/23 10:27:26;;;;;;;6.40;5.00;;;13.70;1.00;;;;;;5014240;28;20026;-94
2020/12/23 10:29:51;;;;;;;5.18;4.60;;;13.70;1.00;;;;;;5013251;28;20470;-93
2020/12/23 10:32:19;;;;;;;5.00;4.50;;;13.60;1.00;;;;;;5013854;28;20040;-94
2020/12/23 10:34:45;;;;;;;6.93;4.95;;;13.60;1.00;;;;;;5023609;28;20049;-94
2020/12/23 10:37:10;;;;;;;6.13;4.88;;;13.70;1.00;;;;;;5033662;28;20097;-94
2020/12/23 10:39:36;;;;;;;8.05;4.85;;;13.60;1.00;;;;;;5033765;28;20032;-94
2020/12/23 10:42:02;;;;;;;8.27;5.32;;;13.60;1.00;;;;;;5032826;28;20068;-94
2020/12/23 10:44:27;;;;;;;7.10;4.50;;;13.70;1.00;;;;;;5014211;28;20489;-94
2020/12/23 10:46:57;;;;;;;6.82;4.68;;;13.60;1.00;;;;;;5014027;28;20036;-94
2020/12/23 10:49:24;;;;;;;5.90;4.75;;;13.60;1.00;;;;;;5013490;28;20018;-94
2020/12/23 10:51:52;;;;;;;5.07;4.57;;;13.60;1.00;;;;;;5013670;28;20030;-94
2020/12/23 10:54:18;;;;;;;6.20;4.63;;;13.70;1.00;;;;;;5013537;28;20207;-94
2020/12/23 10:56:44;;;;;;;5.32;4.82;;;13.60;1.00;;;;;;5013842;28;20049;-94
2020/12/23 10:59:10;;;;;;;5.63;4.63;;;13.60;1.00;;;;;;5013558;28;20501;-94
2020/12/23 11:01:36;;;;;;;5.68;4.43;;;13.60;1.00;;;;;;5013656;28;20434;-95
2020/12/23 11:04:02;;;;;;;5.30;4.40;;;13.60;1.00;;;;;;5013672;28;20084;-94
2020/12/23 11:06:27;;;;;;;7.60;4.50;;;13.70;1.00;;;;;;5030101;28;20025;-94
2020/12/23 11:08:53;;;;;;;6.28;4.22;;;13.80;1.00;;;;;;5033210;28;20119;-93
2020/12/23 11:11:20;;;;;;;5.38;4.28;;;13.70;1.00;;;;;;5033115;28;20025;-93
2020/12/23 11:13:45;;;;;;;5.63;4.38;;;13.70;1.00;;;;;;5033237;28;20048;-94
2020/12/23 11:16:18;;;;;;;6.13;3.90;;;13.80;1.00;;;;;;5032819;28;20112;-95
2020/12/23 11:18:46;;;;;;;6.05;4.07;;;13.80;1.00;;;;;;5033025;28;20565;-94
2020/12/23 11:21:12;;;;;;;5.60;3.72;;;13.90;1.00;;;;;;5033194;28;20095;-94
2020/12/23 11:23:38;;;;;;;5.07;3.80;;;13.90;1.00;;;;;;5033057;28;20031;-94
2020/12/23 11:26:04;;;;;;;6.90;4.38;;;13.90;1.00;;;;;;5032916;28;20021;-95
2020/12/23 11:28:33;;;;;;;5.03;3.72;;;13.90;1.00;;;;;;5032764;28;20504;-94
2020/12/23 11:31:00;;;;;;;4.40;3.20;;;14.00;1.00;;;;;;5032699;28;20112;-94
2020/12/23 11:33:29;;;;;;;6.35;3.55;;;14.00;1.00;;;;;;5032707;28;20191;-94
2020/12/23 11:35:55;;;;;;;5.50;3.03;;;14.10;1.00;;;;;;5035831;28;20428;-94
2020/12/23 11:38:22;;;;;;;6.13;3.30;;;14.10;1.00;;;;;;5036215;28;20032;-94
2020/12/23 11:40:48;;;;;;;4.47;3.22;;;14.10;1.00;;;;;;5036015;28;20226;-94
2020/12/23 11:43:14;;;;;;;3.90;2.63;;;14.10;1.00;;;;;;5036053;28;20064;-94
2020/12/23 11:45:40;;;;;;;5.80;3.25;;;14.20;99.90;;;;;;5035886;28;20025;-94
2020/12/23 11:48:05;;;;;;;4.07;2.97;;;14.20;1.00;;;;;;5036257;28;20025;-94
2020/12/23 11:50:31;;;;;;;3.80;3.03;;;14.20;99.90;;;;;;5019705;28;20030;-94
2020/12/23 11:52:57;;;;;;;4.35;2.70;;;14.20;99.90;;;;;;5015950;28;20495;-94
2020/12/23 11:55:22;;;;;;;4.72;3.40;;;14.20;99.90;;;;;;5016203;28;20393;-94
2020/12/23 11:57:48;;;;;;;4.45;3.22;;;14.20;99.90;;;;;;5016118;28;20029;-95
2020/12/23 12:00:14;;;;;;;5.82;3.42;;;14.30;99.90;;;;;;5016048;28;20030;-94
2020/12/23 12:02:40;;;;;;;4.38;2.88;;;14.40;99.90;;;;;;5015961;28;20025;-94
2020/12/23 12:05:09;;;;;;;3.97;3.00;;;14.40;99.90;;;;;;5024807;28;20021;-94
2020/12/23 12:07:35;;;;;;;6.55;3.08;;;14.40;1.00;;;;;;5035878;28;20017;-94
2020/12/23 12:10:02;;;;;;;6.30;2.90;;;14.40;1.00;;;;;;5035967;28;20017;-94
2020/12/23 12:12:27;;;;;;;5.53;2.83;;;14.40;1.00;;;;;;5035457;28;20441;-94
2020/12/23 12:14:53;;;;;;;5.32;3.17;;;14.40;99.90;;;;;;5036139;28;20095;-94
2020/12/23 12:17:19;;;;;;;4.05;2.30;;;14.40;99.90;;;;;;5035716;28;20068;-94
2020/12/23 12:19:44;;;;;;;3.90;2.65;;;14.40;99.90;;;;;;5035746;28;20481;-94
2020/12/23 12:22:10;;;;;;;2.85;2.42;;;14.40;99.90;;;;;;5035616;28;20043;-94
2020/12/23 12:24:36;;;;;;;4.20;2.70;;;14.40;99.90;;;;;;5035778;28;20021;-94
2020/12/23 12:27:02;;;;;;;4.65;3.00;;;14.40;99.90;;;;;;5035635;28;20427;-94
2020/12/23 12:29:27;;;;;;;3.45;2.80;;;14.40;99.90;;;;;;5035462;28;20036;-94
2020/12/23 12:31:53;;;;;;;4.38;3.03;;;14.40;99.90;;;;;;5035502;28;20079;-94
2020/12/23 12:34:19;;;;;;;4.45;2.70;;;14.40;99.90;;;;;;5035535;28;20025;-94
2020/12/23 12:36:45;;;;;;;3.55;2.65;;;14.40;99.90;;;;;;5035186;28;20389;-94
2020/12/23 12:39:10;;;;;;;3.42;2.67;;;14.40;99.90;;;;;;5035858;28;20021;-94
2020/12/23 12:41:36;;;;;;;4.18;3.03;;;14.40;99.90;;;;;;5035460;28;20029;-94
2020/12/23 12:44:02;;;;;;;3.72;2.80;;;14.30;99.90;;;;;;5035461;28;20396;-94
2020/12/23 12:46:27;;;;;;;3.85;2.55;;;14.40;99.90;;;;;;5035402;28;20106;-94
2020/12/23 12:48:53;;;;;;;3.90;2.40;;;14.40;99.90;;;;;;5035790;28;20373;-94
2020/12/23 12:51:28;;;;;;;4.15;2.60;;;14.30;99.90;;;;;;5035099;28;20033;-94
2020/12/23 12:53:55;;;;;;;4.05;2.60;;;14.30;99.90;;;;;;5038659;28;20021;-94
2020/12/23 12:56:22;;;;;;;3.13;2.78;;;14.30;99.90;;;;;;5039012;28;20175;-95
2020/12/23 12:58:48;;;;;;;3.20;2.30;;;14.30;1.00;;;;;;5039179;28;20021;-94
2020/12/23 13:01:13;;;;;;;2.85;2.63;;;14.30;99.90;;;;;;5039185;28;20427;-95
2020/12/23 13:03:39;;;;;;;3.17;2.60;;;14.30;99.90;;;;;;5039052;28;20032;-94
2020/12/23 13:06:06;;;;;;;3.50;2.33;;;14.30;99.90;;;;;;5039008;28;20114;-94
2020/12/23 13:08:31;;;;;;;4.90;3.25;;;14.20;99.90;;;;;;5038699;28;20457;-94
2020/12/23 13:10:57;;;;;;;6.57;2.90;;;14.20;99.90;;;;;;5038681;28;20025;-94
2020/12/23 13:13:23;;;;;;;4.05;2.70;;;14.20;99.90;;;;;;5038677;28;20493;-94
2020/12/23 13:15:48;;;;;;;3.78;2.40;;;14.20;99.90;;;;;;5038573;28;20524;-94
2020/12/23 13:18:15;;;;;;;5.18;2.70;;;14.20;99.90;;;;;;5038297;28;20389;-94
2020/12/23 13:20:41;;;;;;;4.65;3.00;;;14.20;99.90;;;;;;5038732;28;20071;-94
2020/12/23 13:23:07;;;;;;;4.03;2.50;;;14.20;99.90;;;;;;5038396;28;20032;-94
2020/12/23 13:25:33;;;;;;;2.88;2.58;;;14.10;99.90;;;;;;5033348;28;20030;-94